Time;durP1;ratioP1;P1;durP2;ratioP2;P2;SDS_P1;SDS_P2;PMS_P1;PMS_P2;Temp;Humidity;BMP_temperature;BMP_pressure;BME280_temperature;BME280_humidity;BME280_pressure;Samples;Min_cycle;Max_cycle;Signal;HPM_P1;HPM_P2
2023/02/23 00:01:49;;;;;;;47.77;29.70;;;;;;;8.14;98.33;95212.88;5004978;28;20188;-79
2023/02/23 00:04:17;;;;;;;50.30;30.17;;;;;;;8.13;98.70;95208.66;4986199;28;20234;-79
2023/02/23 00:06:42;;;;;;;43.27;30.90;;;;;;;8.14;98.63;95212.88;5010579;28;20202;-79
2023/02/23 00:09:21;;;;;;;44.30;29.43;;;;;;;8.13;99.29;95213.00;5006126;28;20192;-79
2023/02/23 00:11:46;;;;;;;40.37;27.97;;;;;;;8.15;98.72;95211.09;4993648;28;20185;-79
2023/02/23 00:14:11;;;;;;;45.50;29.67;;;;;;;8.21;98.28;95210.50;4995166;28;20271;-79
2023/02/23 00:16:37;;;;;;;45.07;31.87;;;;;;;8.20;98.49;95207.09;5006051;28;20211;-79
2023/02/23 00:19:06;;;;;;;44.50;28.47;;;;;;;8.24;98.00;95205.88;5004127;28;20180;-79
2023/02/23 00:21:34;;;;;;;40.93;28.00;;;;;;;8.21;98.74;95206.16;5007259;28;20202;-78
2023/02/23 00:24:10;;;;;;;46.07;28.80;;;;;;;8.16;99.89;95208.38;5011220;28;20227;-79
2023/02/23 00:26:37;;;;;;;44.17;29.73;;;;;;;8.14;99.68;95199.13;5008388;28;20211;-79
2023/02/23 00:29:06;;;;;;;42.90;29.20;;;;;;;8.17;99.53;95193.66;5006962;28;20184;-79
2023/02/23 00:31:31;;;;;;;45.83;31.23;;;;;;;8.18;99.40;95197.88;5010269;28;20675;-79
2023/02/23 00:33:59;;;;;;;40.37;27.80;;;;;;;8.23;99.48;95191.31;5014691;28;20299;-79
2023/02/23 00:36:27;;;;;;;45.60;29.27;;;;;;;8.19;99.60;95204.66;4986258;28;20172;-79
2023/02/23 00:38:56;;;;;;;39.07;27.77;;;;;;;8.17;99.47;95191.06;5020188;28;20187;-79
2023/02/23 00:41:24;;;;;;;40.10;28.37;;;;;;;8.12;99.99;95194.06;5007075;28;20214;-78
2023/02/23 00:43:49;;;;;;;44.17;28.30;;;;;;;8.07;100.00;95193.69;4997680;28;20207;-78
2023/02/23 00:46:17;;;;;;;40.47;29.93;;;;;;;8.11;100.00;95196.78;5002516;28;20242;-78
2023/02/23 00:48:44;;;;;;;44.27;30.53;;;;;;;8.12;100.00;95186.31;4998203;28;20240;-78
2023/02/23 00:51:10;;;;;;;47.20;31.50;;;;;;;8.11;99.97;95192.44;5003028;28;20191;-79
2023/02/23 00:53:35;;;;;;;50.97;34.03;;;;;;;8.17;99.81;95189.28;5001799;28;20215;-78
2023/02/23 00:56:05;;;;;;;49.27;33.70;;;;;;;8.14;100.00;95189.59;4996555;28;20548;-78
2023/02/23 00:58:30;;;;;;;41.03;29.83;;;;;;;8.15;99.70;95196.38;5006399;28;20238;-79
2023/02/23 01:00:58;;;;;;;43.50;29.43;;;;;;;8.16;99.81;95198.00;5009635;28;20199;-78
2023/02/23 01:03:24;;;;;;;41.20;29.03;;;;;;;8.11;99.89;95194.22;4998395;28;20180;-78
2023/02/23 01:05:49;;;;;;;43.90;31.43;;;;;;;8.02;100.00;95193.28;5004967;28;20599;-78
2023/02/23 01:08:15;;;;;;;40.23;30.20;;;;;;;8.08;99.97;95191.91;4983952;28;20184;-78
2023/02/23 01:10:42;;;;;;;38.60;26.20;;;;;;;8.12;99.87;95188.88;5013993;28;20218;-78
2023/02/23 01:13:10;;;;;;;35.67;26.30;;;;;;;8.10;100.00;95192.59;5008052;28;20227;-79
2023/02/23 01:15:42;;;;;;;44.57;28.47;;;;;;;8.05;100.00;95189.63;5003590;28;20315;-78
2023/02/23 01:18:08;;;;;;;40.20;26.03;;;;;;;7.99;100.00;95191.00;5012032;28;20270;-78
2023/02/23 01:20:35;;;;;;;38.37;26.70;;;;;;;8.04;100.00;95193.97;4988831;28;20224;-78
2023/02/23 01:23:00;;;;;;;39.10;26.53;;;;;;;8.00;100.00;95191.81;5012932;28;20190;-79
2023/02/23 01:25:27;;;;;;;40.03;26.17;;;;;;;8.01;100.00;95190.84;5002681;28;20203;-79
2023/02/23 01:27:53;;;;;;;37.50;27.10;;;;;;;7.97;100.00;95194.69;5001685;28;20180;-79
2023/02/23 01:30:18;;;;;;;35.83;25.67;;;;;;;8.03;100.00;95189.75;5005395;28;20188;-79
2023/02/23 01:32:43;;;;;;;38.90;27.47;;;;;;;7.99;100.00;95185.81;5019573;28;20190;-79
2023/02/23 01:35:11;;;;;;;38.30;27.47;;;;;;;7.91;100.00;95183.13;5000439;28;20210;-78
2023/02/23 01:37:39;;;;;;;36.77;25.27;;;;;;;8.00;100.00;95177.09;4987945;28;20250;-79
2023/02/23 01:40:09;;;;;;;36.47;23.93;;;;;;;8.06;100.00;95181.72;4999327;28;20671;-79
2023/02/23 01:42:40;;;;;;;35.37;25.87;;;;;;;8.01;100.00;95178.72;4995064;28;20741;-79
2023/02/23 01:45:33;;;;;;;32.93;26.00;;;;;;;8.01;100.00;95183.91;4998927;28;20282;-79
2023/02/23 01:48:02;;;;;;;40.20;25.47;;;;;;;7.97;100.00;95182.56;5013979;28;20190;-78
2023/02/23 01:50:35;;;;;;;36.30;26.27;;;;;;;7.93;100.00;95183.78;5006518;28;20247;-79
2023/02/23 01:53:01;;;;;;;35.00;25.07;;;;;;;7.91;100.00;95180.53;4990001;28;20203;-78
2023/02/23 01:55:28;;;;;;;38.37;25.53;;;;;;;8.01;100.00;95175.31;5008089;28;20215;-79
2023/02/23 01:57:58;;;;;;;34.53;24.47;;;;;;;8.00;100.00;95178.88;4997584;28;20202;-79
2023/02/23 02:00:25;;;;;;;38.00;24.87;;;;;;;7.97;100.00;95174.81;4998820;28;20183;-79
2023/02/23 02:02:51;;;;;;;34.57;23.70;;;;;;;8.02;100.00;95180.34;4988403;28;20264;-78
2023/02/23 02:05:17;;;;;;;34.17;22.70;;;;;;;7.97;100.00;95174.00;5005433;28;20230;-78
2023/02/23 02:07:45;;;;;;;31.70;23.20;;;;;;;7.92;100.00;95180.38;5004702;28;20662;-79
2023/02/23 02:12:37;;;;;;;31.57;22.03;;;;;;;7.97;100.00;95174.81;5019217;28;20247;-78
2023/02/23 02:15:04;;;;;;;30.33;21.83;;;;;;;7.98;100.00;95173.84;5015425;28;20266;-79
2023/02/23 02:17:39;;;;;;;29.57;22.97;;;;;;;8.02;100.00;95175.19;5009338;28;20571;-79
2023/02/23 02:20:36;;;;;;;28.87;20.70;;;;;;;8.03;100.00;95166.47;5004779;28;20750;-79
2023/02/23 02:23:40;;;;;;;30.80;20.77;;;;;;;8.04;100.00;95164.69;5010185;28;20215;-79
2023/02/23 02:26:24;;;;;;;32.23;21.97;;;;;;;8.00;100.00;95171.13;5005286;28;20668;-78
2023/02/23 02:29:25;;;;;;;27.63;20.03;;;;;;;8.09;100.00;95168.50;5013745;28;20195;-79
2023/02/23 02:32:09;;;;;;;32.13;19.97;;;;;;;8.06;100.00;95163.63;5016066;28;20179;-79
2023/02/23 02:35:19;;;;;;;28.17;19.90;;;;;;;8.07;100.00;95162.66;5002505;28;20215;-79
2023/02/23 02:38:02;;;;;;;30.27;20.83;;;;;;;8.09;100.00;95157.34;5013143;28;20245;-78
2023/02/23 02:40:52;;;;;;;25.07;19.13;;;;;;;8.04;100.00;95160.38;5015654;28;20656;-79
2023/02/23 02:43:32;;;;;;;28.57;20.07;;;;;;;8.03;100.00;95160.47;5013637;28;20204;-78
2023/02/23 02:46:12;;;;;;;24.77;17.83;;;;;;;7.99;100.00;95159.16;5004026;28;20219;-77
2023/02/23 02:48:49;;;;;;;28.20;18.53;;;;;;;7.92;100.00;95158.88;5005736;28;20240;-78
2023/02/23 02:51:20;;;;;;;25.70;18.17;;;;;;;7.94;100.00;95157.78;5017269;28;20671;-78
2023/02/23 02:54:05;;;;;;;25.10;18.00;;;;;;;7.91;100.00;95152.91;5004560;28;20237;-79
2023/02/23 02:56:32;;;;;;;24.83;18.23;;;;;;;7.85;100.00;95156.03;5009029;28;20262;-78
2023/02/23 02:58:58;;;;;;;27.97;17.87;;;;;;;7.85;100.00;95157.81;5002132;28;20199;-78
2023/02/23 04:18:21;;;;;;;16.07;12.33;;;;;;;7.94;100.00;95160.38;5017403;28;20174;-78
2023/02/23 04:20:46;;;;;;;17.00;13.13;;;;;;;7.93;100.00;95166.50;4998940;28;20202;-78
2023/02/23 04:23:11;;;;;;;15.30;12.33;;;;;;;7.94;100.00;95168.13;5006526;28;20179;-78
2023/02/23 04:25:37;;;;;;;15.70;12.13;;;;;;;7.95;100.00;95168.94;4999510;28;20195;-79
2023/02/23 04:28:02;;;;;;;16.50;12.57;;;;;;;7.90;100.00;95171.97;5014918;28;20607;-78
2023/02/23 04:30:28;;;;;;;20.33;13.07;;;;;;;7.92;100.00;95172.63;5007031;28;20444;-79
2023/02/23 04:32:55;;;;;;;18.93;12.63;;;;;;;7.92;100.00;95174.41;5016404;28;20183;-78
2023/02/23 04:35:20;;;;;;;15.53;12.00;;;;;;;7.92;100.00;95175.22;4984261;28;20255;-78
2023/02/23 04:37:46;;;;;;;17.97;11.73;;;;;;;7.92;100.00;95169.22;5008212;28;20171;-79
2023/02/23 04:40:11;;;;;;;16.30;12.10;;;;;;;7.89;100.00;95182.44;5009847;28;20183;-78
2023/02/23 04:42:38;;;;;;;17.87;13.27;;;;;;;7.83;100.00;95170.88;5030131;28;20187;-78
2023/02/23 04:45:03;;;;;;;18.53;12.33;;;;;;;7.85;100.00;95178.50;5018877;28;20274;-78
2023/02/23 04:47:29;;;;;;;14.50;11.87;;;;;;;7.88;100.00;95178.22;5005118;28;20207;-78
2023/02/23 04:49:54;;;;;;;16.13;12.70;;;;;;;7.86;100.00;95170.63;4985937;28;20660;-78
2023/02/23 04:52:20;;;;;;;17.30;12.50;;;;;;;7.86;100.00;95173.22;5016316;28;20722;-78
2023/02/23 04:54:45;;;;;;;14.97;11.57;;;;;;;7.86;100.00;95169.78;5004314;28;20748;-78
2023/02/23 04:57:10;;;;;;;16.03;11.40;;;;;;;7.85;100.00;95178.50;5006823;28;20176;-79
2023/02/23 04:59:36;;;;;;;16.77;11.33;;;;;;;7.83;100.00;95172.66;5000826;28;20179;-78
2023/02/23 05:02:01;;;;;;;18.70;13.50;;;;;;;7.85;100.00;95175.91;4986440;28;20193;-78
2023/02/23 05:04:27;;;;;;;18.57;12.93;;;;;;;7.86;100.00;95174.94;5005515;28;20215;-78
2023/02/23 05:06:52;;;;;;;24.00;13.90;;;;;;;7.86;100.00;95172.38;5016601;28;20226;-78
2023/02/23 05:09:17;;;;;;;19.27;12.47;;;;;;;7.86;100.00;95167.19;5012251;28;20210;-78
2023/02/23 05:11:43;;;;;;;17.70;12.00;;;;;;;7.89;100.00;95170.34;4987682;28;20187;-78
2023/02/23 05:14:09;;;;;;;15.37;11.07;;;;;;;7.84;100.00;95169.09;5005443;28;20208;-78
2023/02/23 05:16:34;;;;;;;15.37;10.33;;;;;;;7.88;100.00;95167.91;5011820;28;20194;-78
2023/02/23 05:19:00;;;;;;;11.67;9.10;;;;;;;7.84;100.00;95167.34;4986773;28;20667;-78
2023/02/23 05:21:26;;;;;;;10.37;8.30;;;;;;;7.83;100.00;95167.47;5014128;28;20215;-78
2023/02/23 05:23:51;;;;;;;10.77;8.60;;;;;;;7.83;100.00;95168.28;5001942;28;20215;-79
2023/02/23 05:26:17;;;;;;;14.73;8.30;;;;;;;7.80;100.00;95178.13;4986151;28;20218;-78
2023/02/23 05:28:42;;;;;;;9.93;8.13;;;;;;;7.81;100.00;95174.56;4986210;28;20183;-78
2023/02/23 05:31:08;;;;;;;12.23;7.73;;;;;;;7.77;100.00;95173.19;5004726;28;20596;-79
2023/02/23 05:33:41;;;;;;;12.00;8.57;;;;;;;7.76;100.00;95174.16;5003394;28;20713;-78
2023/02/23 05:36:07;;;;;;;10.93;8.30;;;;;;;7.75;100.00;95173.34;4986535;28;20187;-79
2023/02/23 05:38:33;;;;;;;12.03;7.63;;;;;;;7.69;100.00;95166.16;5009580;28;20193;-78
2023/02/23 05:40:58;;;;;;;10.93;7.60;;;;;;;7.74;100.00;95163.16;4997191;28;20187;-78
2023/02/23 05:43:23;;;;;;;11.20;8.00;;;;;;;7.71;100.00;95164.25;5019691;28;20199;-78
2023/02/23 05:45:49;;;;;;;10.40;8.40;;;;;;;7.69;100.00;95170.53;5009797;28;20227;-79
2023/02/23 05:48:14;;;;;;;9.97;7.80;;;;;;;7.69;100.00;95171.34;4989166;28;20282;-78
2023/02/23 05:50:39;;;;;;;9.33;7.77;;;;;;;7.70;100.00;95165.22;5001878;28;20206;-78
2023/02/23 05:53:05;;;;;;;11.50;8.10;;;;;;;7.71;100.00;95172.00;5001486;28;20194;-78
2023/02/23 05:55:30;;;;;;;14.87;8.23;;;;;;;7.70;100.00;95166.97;5021756;28;20218;-78
2023/02/23 05:57:55;;;;;;;8.63;7.23;;;;;;;7.79;100.00;95169.53;4988015;28;20205;-78
2023/02/23 06:00:21;;;;;;;10.60;8.53;;;;;;;7.74;100.00;95161.38;5009102;28;20248;-78
2023/02/23 06:02:47;;;;;;;11.07;7.30;;;;;;;7.71;100.00;95159.09;5006682;28;20191;-78
2023/02/23 06:05:12;;;;;;;9.40;7.03;;;;;;;7.66;100.00;95167.25;5011004;28;20207;-78
2023/02/23 06:07:38;;;;;;;9.20;6.83;;;;;;;7.66;100.00;95172.41;5003062;28;20199;-78
2023/02/23 06:10:04;;;;;;;9.17;5.80;;;;;;;7.72;100.00;95178.00;5006238;28;20211;-78
2023/02/23 06:12:29;;;;;;;8.73;6.00;;;;;;;7.72;100.00;95173.63;5028320;28;20175;-78
2023/02/23 06:14:55;;;;;;;6.40;5.40;;;;;;;7.72;100.00;95175.41;5014859;28;20816;-80
2023/02/23 06:17:21;;;;;;;6.87;5.17;;;;;;;7.72;100.00;95180.56;5009615;28;20195;-80
2023/02/23 06:19:46;;;;;;;8.70;4.83;;;;;;;7.67;100.00;95175.81;5017448;28;20190;-81
2023/02/23 06:22:12;;;;;;;7.87;5.30;;;;;;;7.70;100.00;95185.88;5011504;28;20188;-81
2023/02/23 06:24:37;;;;;;;7.20;5.33;;;;;;;7.65;100.00;95178.53;4987908;28;20691;-78
2023/02/23 06:27:03;;;;;;;8.07;5.17;;;;;;;7.67;100.00;95192.13;5007940;28;20211;-78
2023/02/23 06:29:28;;;;;;;8.07;6.17;;;;;;;7.58;100.00;95187.78;5013081;28;20202;-79
2023/02/23 06:31:53;;;;;;;9.07;6.67;;;;;;;7.61;100.00;95191.88;5018907;28;20659;-79
2023/02/23 06:34:19;;;;;;;12.73;8.50;;;;;;;7.61;100.00;95187.53;5012864;28;20207;-79
2023/02/23 06:36:44;;;;;;;11.93;7.53;;;;;;;7.55;100.00;95197.59;5008743;28;20180;-79
2023/02/23 06:39:10;;;;;;;13.07;7.77;;;;;;;7.56;100.00;95200.03;5015013;28;20257;-79
2023/02/23 06:41:35;;;;;;;10.93;8.10;;;;;;;7.51;100.00;95201.41;5023134;28;20310;-79
2023/02/23 06:44:01;;;;;;;12.10;8.03;;;;;;;7.49;100.00;95209.28;5008120;28;20679;-79
2023/02/23 06:46:26;;;;;;;10.47;7.07;;;;;;;7.50;100.00;95204.94;4996721;28;20207;-80
2023/02/23 06:48:58;;;;;;;11.33;7.90;;;;;;;7.51;100.00;95207.41;5021313;28;20187;-79
2023/02/23 06:51:24;;;;;;;11.37;8.03;;;;;;;7.50;100.00;95213.50;5018086;28;20206;-78
2023/02/23 06:53:52;;;;;;;12.73;8.53;;;;;;;7.51;100.00;95217.75;5020414;28;20183;-78
2023/02/23 06:56:17;;;;;;;10.93;8.10;;;;;;;7.49;100.00;95216.22;5012324;28;20219;-78
2023/02/23 06:58:43;;;;;;;11.37;8.43;;;;;;;7.52;100.00;95224.53;5028653;28;20175;-78
2023/02/23 07:01:08;;;;;;;12.27;9.07;;;;;;;7.54;100.00;95217.44;5036473;28;20187;-77
2023/02/23 07:03:34;;;;;;;10.43;8.00;;;;;;;7.52;100.00;95221.13;5010803;28;20198;-77
2023/02/23 07:05:59;;;;;;;9.57;6.73;;;;;;;7.63;100.00;95229.56;5013033;28;20219;-78
2023/02/23 07:08:25;;;;;;;7.73;6.93;;;;;;;7.59;100.00;95229.94;4982552;28;20192;-77
2023/02/23 07:10:50;;;;;;;8.20;6.63;;;;;;;7.74;100.00;95238.09;5001252;28;20820;-77
2023/02/23 07:13:15;;;;;;;9.37;6.73;;;;;;;7.72;100.00;95235.66;5012756;28;20191;-78
2023/02/23 07:15:43;;;;;;;6.93;6.20;;;;;;;7.72;100.00;95238.25;5014947;28;20191;-77
2023/02/23 07:18:09;;;;;;;8.60;6.70;;;;;;;7.82;100.00;95241.63;5028816;28;20187;-78
2023/02/23 07:20:34;;;;;;;9.27;6.40;;;;;;;7.71;100.00;95240.97;5011561;28;20682;-78
2023/02/23 07:23:00;;;;;;;10.93;5.87;;;;;;;7.74;100.00;95243.28;4995426;28;20188;-79
2023/02/23 07:25:26;;;;;;;9.77;6.53;;;;;;;7.87;100.00;95238.66;5004673;28;20215;-78
2023/02/23 07:27:53;;;;;;;8.43;6.33;;;;;;;7.88;100.00;95242.88;4996242;28;20257;-79
2023/02/23 07:30:19;;;;;;;7.70;6.50;;;;;;;7.98;100.00;95238.50;5013455;28;20183;-78
2023/02/23 07:32:44;;;;;;;7.80;5.87;;;;;;;8.01;100.00;95239.97;5006329;28;20199;-78
2023/02/23 07:35:09;;;;;;;9.23;6.20;;;;;;;8.05;100.00;95242.16;4987399;28;20211;-79
2023/02/23 07:37:35;;;;;;;10.20;5.97;;;;;;;8.04;100.00;95235.34;5011281;28;20318;-78
2023/02/23 07:40:00;;;;;;;10.57;6.20;;;;;;;8.11;100.00;95240.75;5016862;28;20187;-79
2023/02/23 07:42:25;;;;;;;9.83;6.53;;;;;;;8.23;100.00;95239.66;5007466;28;20656;-79
2023/02/23 07:44:51;;;;;;;6.43;5.83;;;;;;;8.35;100.00;95246.31;5006129;28;20207;-80
2023/02/23 07:47:16;;;;;;;9.33;6.27;;;;;;;8.36;100.00;95239.38;5011071;28;20282;-78
2023/02/23 07:49:41;;;;;;;8.07;6.50;;;;;;;8.41;100.00;95250.94;5012344;28;20203;-78
2023/02/23 07:52:07;;;;;;;8.70;6.73;;;;;;;8.46;100.00;95251.31;4985809;28;20746;-79
2023/02/23 07:54:32;;;;;;;11.87;6.07;;;;;;;8.54;100.00;95258.38;4995305;28;20274;-79
2023/02/23 07:56:59;;;;;;;8.33;5.80;;;;;;;8.69;100.00;95248.38;5012134;28;20179;-79
2023/02/23 07:59:24;;;;;;;10.13;6.03;;;;;;;8.80;100.00;95248.19;5018130;28;20189;-79
2023/02/23 08:01:51;;;;;;;9.23;6.90;;;;;;;8.81;100.00;95252.38;5012540;28;20251;-79
2023/02/23 08:04:16;;;;;;;9.17;7.03;;;;;;;8.84;100.00;95252.13;5009522;28;20222;-79
2023/02/23 08:06:42;;;;;;;9.07;6.37;;;;;;;8.84;100.00;95253.91;5000013;28;20204;-79
2023/02/23 08:09:07;;;;;;;8.50;6.70;;;;;;;8.88;100.00;95248.28;4995220;28;20651;-79
2023/02/23 08:11:32;;;;;;;8.30;6.63;;;;;;;8.95;100.00;95251.09;4992896;28;20334;-79
2023/02/23 08:13:59;;;;;;;8.73;6.47;;;;;;;9.02;100.00;95247.78;4988896;28;20596;-79
2023/02/23 08:16:29;;;;;;;9.83;6.23;;;;;;;9.13;100.00;95257.13;5001200;28;20549;-78
2023/02/23 08:18:59;;;;;;;7.17;6.10;;;;;;;9.31;100.00;95249.38;5001587;28;20190;-80
2023/02/23 08:21:25;;;;;;;7.47;6.57;;;;;;;9.54;99.85;95254.94;5018158;28;20247;-78
2023/02/23 08:23:50;;;;;;;8.77;7.87;;;;;;;9.70;98.97;95254.25;5018890;28;20294;-78
2023/02/23 08:26:16;;;;;;;14.17;10.77;;;;;;;9.63;97.47;95254.06;5015982;28;20215;-79
2023/02/23 08:28:44;;;;;;;10.90;8.57;;;;;;;9.99;96.82;95254.03;5009555;28;20188;-79
2023/02/23 08:31:11;;;;;;;9.07;6.57;;;;;;;9.84;95.31;95258.94;5016886;28;20175;-78
2023/02/23 08:33:38;;;;;;;8.20;5.13;;;;;;;9.94;94.32;95255.28;5000525;28;20226;-78
2023/02/23 08:36:04;;;;;;;7.00;3.70;;;;;;;10.23;91.52;95254.22;5009590;28;20179;-78
2023/02/23 08:38:30;;;;;;;5.40;3.60;;;;;;;10.20;91.20;95255.31;5024650;28;20275;-79
2023/02/23 08:40:59;;;;;;;5.37;3.47;;;;;;;10.61;90.35;95257.38;5001043;28;20659;-78
2023/02/23 08:43:24;;;;;;;7.40;4.07;;;;;;;10.40;90.43;95257.72;5012349;28;20201;-79
2023/02/23 08:45:49;;;;;;;4.60;3.73;;;;;;;10.56;90.91;95255.22;5007497;28;20191;-78
2023/02/23 08:48:14;;;;;;;5.27;3.50;;;;;;;11.04;88.52;95262.44;5005004;28;20267;-79
2023/02/23 08:50:40;;;;;;;4.33;3.53;;;;;;;11.03;89.18;95258.19;5001018;28;20192;-79
2023/02/23 08:53:06;;;;;;;4.17;3.30;;;;;;;11.11;87.26;95266.97;4988759;28;20195;-78
2023/02/23 08:55:34;;;;;;;4.83;4.00;;;;;;;11.24;88.08;95260.38;4992811;28;20203;-79
2023/02/23 08:57:59;;;;;;;7.10;4.33;;;;;;;11.35;86.96;95264.44;5017157;28;20183;-79
2023/02/23 09:00:25;;;;;;;6.53;4.00;;;;;;;11.76;86.49;95265.34;5015770;28;20186;-79
2023/02/23 09:02:50;;;;;;;7.60;3.57;;;;;;;11.58;85.73;95265.47;5006910;28;20183;-79
2023/02/23 09:05:16;;;;;;;6.00;3.57;;;;;;;11.89;83.34;95270.88;5002899;28;20221;-79
2023/02/23 09:07:43;;;;;;;4.80;3.57;;;;;;;12.04;83.99;95265.84;4994678;28;20195;-78
2023/02/23 09:10:11;;;;;;;5.63;3.77;;;;;;;11.76;83.21;95269.72;4987676;28;20206;-79
2023/02/23 09:12:36;;;;;;;6.47;3.17;;;;;;;11.32;83.50;95268.19;5011780;28;20342;-79
2023/02/23 09:15:02;;;;;;;3.80;2.90;;;;;;;11.69;83.30;95269.56;5019267;28;20213;-79
2023/02/23 09:17:27;;;;;;;5.30;4.00;;;;;;;11.77;81.96;95268.75;4991072;28;20185;-80
2023/02/23 09:19:53;;;;;;;4.93;3.00;;;;;;;11.63;80.73;95262.38;4991636;28;20307;-80
2023/02/23 09:22:18;;;;;;;6.00;3.00;;;;;;;11.66;80.10;95269.88;5010673;28;20184;-80
2023/02/23 09:24:44;;;;;;;4.90;2.80;;;;;;;11.72;80.06;95278.81;5004288;28;20235;-79
2023/02/23 09:27:11;;;;;;;6.50;3.37;;;;;;;11.94;80.10;95273.03;5007184;28;20203;-80
2023/02/23 09:29:40;;;;;;;10.10;6.73;;;;;;;11.98;81.27;95269.09;5011732;28;20199;-80
2023/02/23 09:32:06;;;;;;;8.63;7.10;;;;;;;11.84;82.39;95267.97;5018378;28;20182;-79
2023/02/23 09:34:31;;;;;;;11.33;6.73;;;;;;;11.43;85.81;95274.88;5017604;28;20212;-79
2023/02/23 09:36:56;;;;;;;8.70;6.40;;;;;;;11.72;85.09;95273.63;5027372;28;20184;-79
2023/02/23 09:39:21;;;;;;;24.03;7.90;;;;;;;11.82;84.52;95276.91;5009634;28;20548;-77
2023/02/23 09:41:58;;;;;;;12.37;7.43;;;;;;;11.89;84.50;95275.28;5021970;28;20195;-80
2023/02/23 09:44:41;;;;;;;10.63;6.63;;;;;;;11.75;85.38;95278.47;5021436;28;20253;-78
2023/02/23 09:47:23;;;;;;;8.27;6.13;;;;;;;11.63;83.99;95273.59;5014481;28;20555;-79
2023/02/23 09:49:49;;;;;;;7.83;5.73;;;;;;;11.71;84.80;95266.78;5022378;28;20667;-79
2023/02/23 09:52:26;;;;;;;9.70;5.73;;;;;;;12.13;82.31;95277.09;5018289;28;20206;-79
2023/02/23 09:54:51;;;;;;;9.50;5.30;;;;;;;12.11;81.23;95269.44;5012167;28;20206;-80
2023/02/23 09:57:21;;;;;;;8.97;5.77;;;;;;;12.19;81.08;95272.03;5010466;28;20190;-79
2023/02/23 09:59:46;;;;;;;7.77;5.00;;;;;;;12.39;79.73;95272.50;5001844;28;20190;-79
2023/02/23 10:02:23;;;;;;;6.57;5.07;;;;;;;12.48;78.78;95274.13;5009936;28;20191;-79
2023/02/23 10:05:01;;;;;;;8.53;5.23;;;;;;;12.67;77.80;95269.50;5025550;28;20238;-79
2023/02/23 10:07:36;;;;;;;6.70;4.33;;;;;;;12.68;76.18;95274.53;5004139;28;20214;-79
2023/02/23 10:10:05;;;;;;;7.23;4.53;;;;;;;12.88;76.52;95279.38;5002752;28;20276;-79
2023/02/23 10:12:55;;;;;;;7.63;4.03;;;;;;;12.98;75.50;95272.16;5009194;28;20188;-79
2023/02/23 10:15:44;;;;;;;5.80;4.23;;;;;;;13.22;74.91;95289.53;5020648;28;20203;-79
2023/02/23 10:18:32;;;;;;;6.57;4.23;;;;;;;13.11;73.36;95277.66;5013404;28;20186;-79
2023/02/23 10:21:03;;;;;;;9.23;3.87;;;;;;;13.12;73.76;95283.69;4998826;28;20707;-80
2023/02/23 10:23:37;;;;;;;5.60;3.53;;;;;;;12.79;71.84;95280.38;5019074;28;20219;-80
2023/02/23 10:26:07;;;;;;;5.73;3.63;;;;;;;13.00;73.67;95270.22;5005083;28;20289;-78
2023/02/23 10:28:34;;;;;;;6.63;3.83;;;;;;;13.08;74.55;95280.63;5013556;28;20183;-77
2023/02/23 10:31:03;;;;;;;6.93;4.87;;;;;;;13.03;75.17;95281.13;5008914;28;20195;-78
2023/02/23 10:33:35;;;;;;;8.60;4.63;;;;;;;13.02;76.61;95281.28;5014820;28;20190;-78
2023/02/23 10:36:15;;;;;;;8.40;5.20;;;;;;;12.80;77.45;95282.00;5013227;28;20182;-78
2023/02/23 10:38:40;;;;;;;7.33;5.13;;;;;;;12.76;77.43;95287.56;5020076;28;20191;-78
2023/02/23 10:41:06;;;;;;;5.60;4.70;;;;;;;12.88;77.46;95287.19;5020608;28;20189;-78
2023/02/23 10:43:32;;;;;;;6.90;5.23;;;;;;;12.54;77.18;95290.84;4998654;28;20223;-78
2023/02/23 10:45:57;;;;;;;6.80;4.97;;;;;;;12.50;78.17;95288.75;5010319;28;20204;-77
2023/02/23 10:48:28;;;;;;;24.00;5.87;;;;;;;12.22;79.07;95294.31;4987799;28;20191;-78
2023/02/23 10:51:01;;;;;;;11.60;5.43;;;;;;;12.35;78.30;95296.41;5005783;28;20196;-78
2023/02/23 10:53:36;;;;;;;5.63;4.70;;;;;;;12.25;78.69;95293.97;5015575;28;20186;-79
2023/02/23 10:56:12;;;;;;;6.90;5.23;;;;;;;12.28;78.60;95296.28;4999519;28;20183;-79
2023/02/23 10:58:52;;;;;;;6.23;4.60;;;;;;;12.36;77.49;95292.84;5017067;28;20305;-78
2023/02/23 11:01:37;;;;;;;6.67;4.53;;;;;;;12.31;78.45;95302.94;5014059;28;20494;-79
2023/02/23 11:04:12;;;;;;;5.63;4.17;;;;;;;12.23;78.56;95297.75;5003505;28;20655;-79
2023/02/23 11:06:38;;;;;;;6.07;4.60;;;;;;;12.07;78.26;95290.75;5003896;28;20203;-78
2023/02/23 11:09:23;;;;;;;7.40;4.67;;;;;;;12.07;78.48;95295.94;5008900;28;20186;-78
2023/02/23 11:12:02;;;;;;;7.13;4.30;;;;;;;11.78;78.84;95292.00;5011756;28;20249;-78
2023/02/23 11:14:29;;;;;;;4.30;3.87;;;;;;;11.83;79.64;95286.31;5000669;28;20215;-79
2023/02/23 11:16:55;;;;;;;7.80;5.20;;;;;;;11.66;82.32;95290.69;5002801;28;20262;-79
2023/02/23 11:19:30;;;;;;;8.33;6.30;;;;;;;11.49;84.86;95282.03;5024465;28;20200;-78
2023/02/23 11:21:55;;;;;;;8.60;6.13;;;;;;;11.57;83.85;95281.22;4993221;28;20188;-79
2023/02/23 11:24:26;;;;;;;7.70;5.80;;;;;;;11.63;83.95;95276.19;4984711;28;20563;-79
2023/02/23 11:26:53;;;;;;;8.80;5.87;;;;;;;11.86;83.26;95280.81;4996608;28;20214;-78
2023/02/23 11:29:28;;;;;;;9.33;5.73;;;;;;;11.64;83.35;95280.44;5007625;28;20221;-79
2023/02/23 11:31:56;;;;;;;7.70;5.33;;;;;;;11.45;84.23;95269.50;5005876;28;20186;-79
2023/02/23 11:34:30;;;;;;;9.20;5.63;;;;;;;11.53;84.04;95270.34;4984830;28;20246;-78
2023/02/23 11:37:20;;;;;;;8.97;6.53;;;;;;;11.64;83.49;95272.63;5010352;28;20250;-79
2023/02/23 11:40:18;;;;;;;7.13;5.53;;;;;;;11.94;81.00;95267.00;5016926;28;20643;-79
2023/02/23 11:42:54;;;;;;;7.00;5.20;;;;;;;11.88;81.34;95266.66;5010718;28;20210;-79
2023/02/23 11:45:21;;;;;;;7.67;5.53;;;;;;;11.93;79.78;95268.78;5015726;28;20235;-78
2023/02/23 11:47:48;;;;;;;10.33;5.20;;;;;;;11.97;79.45;95269.28;4995953;28;20724;-79
2023/02/23 11:50:34;;;;;;;6.20;4.90;;;;;;;12.05;79.36;95267.47;5016053;28;20242;-79
2023/02/23 11:53:15;;;;;;;9.17;5.63;;;;;;;11.89;80.09;95263.09;4995158;28;20303;-79
2023/02/23 11:55:48;;;;;;;7.47;5.40;;;;;;;11.64;81.63;95258.81;5002989;28;20215;-79
2023/02/23 11:58:27;;;;;;;8.10;4.67;;;;;;;12.07;78.92;95262.91;5009338;28;20180;-80
2023/02/23 12:01:43;;;;;;;7.17;4.97;;;;;;;12.18;77.75;95257.38;5004513;28;20270;-79
2023/02/23 12:04:22;;;;;;;8.50;6.10;;;;;;;12.10;78.39;95252.19;5002811;28;20234;-79
2023/02/23 12:06:48;;;;;;;8.40;5.37;;;;;;;12.05;78.75;95259.69;4984890;28;20426;-79
2023/02/23 12:09:24;;;;;;;7.03;4.90;;;;;;;12.27;77.82;95247.75;5009341;28;20180;-79
2023/02/23 12:12:14;;;;;;;7.90;5.77;;;;;;;12.01;77.83;95247.94;5013487;28;20198;-79
2023/02/23 12:14:52;;;;;;;8.57;5.50;;;;;;;12.35;77.81;95239.13;5006236;28;20215;-79
2023/02/23 12:17:26;;;;;;;10.27;5.67;;;;;;;12.58;77.15;95242.66;5012082;28;20206;-79
2023/02/23 12:20:00;;;;;;;7.07;5.00;;;;;;;12.51;75.21;95240.91;5000239;28;20187;-79
2023/02/23 12:22:34;;;;;;;7.27;4.57;;;;;;;12.54;74.24;95240.53;5000286;28;20191;-79
2023/02/23 12:25:11;;;;;;;8.73;5.03;;;;;;;12.75;75.52;95238.22;5016344;28;20211;-79
2023/02/23 12:27:44;;;;;;;7.07;4.57;;;;;;;12.88;74.90;95240.28;5009887;28;20210;-79
2023/02/23 12:30:33;;;;;;;5.10;3.83;;;;;;;12.63;73.68;95245.59;4997824;28;20225;-79
2023/02/23 12:33:07;;;;;;;8.67;5.47;;;;;;;12.46;75.39;95238.81;5017470;28;20234;-79
2023/02/23 12:35:48;;;;;;;7.27;4.67;;;;;;;12.55;74.89;95239.59;4994346;28;20241;-79
2023/02/23 12:38:27;;;;;;;7.43;4.67;;;;;;;12.49;75.22;95235.84;5012417;28;20184;-79
2023/02/23 12:40:57;;;;;;;6.07;4.70;;;;;;;12.37;74.52;95240.63;4995212;28;20191;-80
2023/02/23 12:43:39;;;;;;;9.10;5.50;;;;;;;12.18;75.85;95238.34;5004513;28;20200;-79
2023/02/23 12:46:14;;;;;;;10.37;5.50;;;;;;;12.08;76.66;95233.31;5027267;28;20210;-79
2023/02/23 12:48:49;;;;;;;8.10;6.27;;;;;;;12.08;77.00;95238.50;5006719;28;20207;-79
2023/02/23 12:51:27;;;;;;;8.30;5.50;;;;;;;11.95;76.96;95235.63;4993529;28;20196;-79
2023/02/23 12:53:53;;;;;;;7.33;5.00;;;;;;;11.70;77.14;95234.75;5023591;28;20213;-79
2023/02/23 12:56:44;;;;;;;7.63;5.60;;;;;;;11.74;77.63;95227.44;4985518;28;20254;-80
2023/02/23 12:59:27;;;;;;;11.90;6.47;;;;;;;11.57;77.15;95229.22;5008479;28;20570;-79